Time;durP1;ratioP1;P1;durP2;ratioP2;P2;SDS_P1;SDS_P2;PMS_P1;PMS_P2;Temp;Humidity;BMP_temperature;BMP_pressure;BME280_temperature;BME280_humidity;BME280_pressure;Samples;Min_cycle;Max_cycle;Signal;HPM_P1;HPM_P2
2022/04/13 00:00:07;;;;;;;2.87;2.60;;;;;;;2.39;100.00;98506.17;1715443;84;21128;-71
2022/04/13 00:02:38;;;;;;;2.20;1.98;;;;;;;2.38;100.00;98492.52;1718114;83;21038;-71
2022/04/13 00:05:08;;;;;;;2.20;2.00;;;;;;;2.38;100.00;98489.34;1735677;83;21076;-70
2022/04/13 00:07:37;;;;;;;3.97;2.20;;;;;;;2.39;100.00;98487.02;1736121;83;21028;-70
2022/04/13 00:10:07;;;;;;;2.37;1.83;;;;;;;2.39;100.00;98487.02;1735918;82;21041;-71
2022/04/13 00:12:36;;;;;;;1.83;1.73;;;;;;;2.39;100.00;98479.02;1735838;82;21032;-71
2022/04/13 00:15:06;;;;;;;2.20;2.00;;;;;;;2.39;100.00;98477.69;1735256;83;21038;-70
2022/04/13 00:17:38;;;;;;;2.63;2.17;;;;;;;2.37;100.00;98476.98;1735591;83;21649;-72
2022/04/13 00:20:08;;;;;;;1.87;1.77;;;;;;;2.37;100.00;98469.48;1735630;82;21092;-71
2022/04/13 00:22:36;;;;;;;4.30;1.93;;;;;;;2.38;100.00;98465.33;1735953;82;21534;-71
2022/04/13 00:25:04;;;;;;;2.30;1.73;;;;;;;2.39;100.00;98456.82;1735685;83;21052;-72
2022/04/13 00:27:31;;;;;;;2.27;1.70;;;;;;;2.39;100.00;98454.16;1735250;83;21033;-71
2022/04/13 00:29:59;;;;;;;1.70;1.60;;;;;;;2.37;100.00;98458.31;1735323;82;21057;-71
2022/04/13 00:32:26;;;;;;;2.50;1.83;;;;;;;2.38;100.00;98455.17;1735822;83;21052;-72
2022/04/13 00:34:55;;;;;;;2.23;1.90;;;;;;;2.36;100.00;98454.49;1735914;83;21518;-72
2022/04/13 00:37:22;;;;;;;2.50;1.60;;;;;;;2.35;100.00;98436.80;1735919;82;21075;-72
2022/04/13 00:39:49;;;;;;;1.40;1.30;;;;;;;2.34;100.00;98432.45;1736058;83;21025;-71
2022/04/13 00:42:17;;;;;;;2.37;1.70;;;;;;;2.32;100.00;98427.77;1736717;82;21099;-71
2022/04/13 00:44:46;;;;;;;1.80;1.50;;;;;;;2.33;100.00;98420.12;1745743;82;21068;-70
2022/04/13 00:47:13;;;;;;;2.63;1.87;;;;;;;2.30;100.00;98422.59;1746040;82;21048;-71
2022/04/13 00:49:42;;;;;;;2.43;1.80;;;;;;;2.28;100.00;98417.45;1745624;82;21001;-71
2022/04/13 00:52:10;;;;;;;1.73;1.60;;;;;;;2.27;100.00;98416.27;1745921;82;21592;-72
2022/04/13 00:54:38;;;;;;;1.57;1.47;;;;;;;2.25;100.00;98412.41;1745776;82;21092;-71
2022/04/13 00:57:11;;;;;;;1.77;1.60;;;;;;;2.26;100.00;98406.58;1721175;82;21048;-72
2022/04/13 00:59:38;;;;;;;1.83;1.70;;;;;;;2.25;100.00;98407.08;1745296;82;21017;-72
2022/04/13 01:02:08;;;;;;;1.70;1.60;;;;;;;2.26;100.00;98399.91;1745956;82;21529;-73
2022/04/13 01:04:37;;;;;;;1.80;1.50;;;;;;;2.25;100.00;98393.75;1717662;82;21115;-72
2022/04/13 01:07:09;;;;;;;2.13;1.67;;;;;;;2.25;100.00;98385.75;1715433;83;21500;-71
2022/04/13 01:09:37;;;;;;;1.72;1.60;;;;;;;2.27;100.00;98389.09;1716241;84;21070;-72
2022/04/13 01:12:07;;;;;;;2.17;2.00;;;;;;;2.25;100.00;98381.74;1715927;84;21075;-72
2022/04/13 01:14:34;;;;;;;1.47;1.37;;;;;;;2.25;100.00;98383.08;1715776;84;21079;-71
2022/04/13 01:17:03;;;;;;;1.70;1.57;;;;;;;2.24;100.00;98375.23;1719164;83;21061;-70
2022/04/13 01:19:32;;;;;;;1.53;1.43;;;;;;;2.24;100.00;98362.72;1731025;83;21558;-71
2022/04/13 01:22:19;;;;;;;2.90;1.73;;;;;;;2.25;100.00;98363.58;1731434;83;21054;-72
2022/04/13 01:24:48;;;;;;;1.60;1.50;;;;;;;2.25;100.00;98359.08;1707129;83;21025;-72
2022/04/13 01:27:15;;;;;;;3.23;1.60;;;;;;;2.23;100.00;98358.41;1731233;83;20999;-71
2022/04/13 01:29:44;;;;;;;1.40;1.30;;;;;;;2.25;100.00;98347.58;1731003;83;21574;-70
2022/04/13 01:32:11;;;;;;;1.40;1.30;;;;;;;2.23;100.00;98349.06;1732673;83;21050;-71
2022/04/13 01:34:50;;;;;;;2.77;1.27;;;;;;;2.23;100.00;98341.55;1730941;83;21487;-71
2022/04/13 01:37:17;;;;;;;2.20;1.23;;;;;;;2.24;100.00;98340.56;1732563;83;21100;-71
2022/04/13 01:39:45;;;;;;;1.60;1.50;;;;;;;2.23;100.00;98333.06;1732310;83;21069;-72
2022/04/13 01:42:14;;;;;;;1.13;1.13;;;;;;;2.24;100.00;98330.72;1726026;83;21109;-72
2022/04/13 01:44:42;;;;;;;1.70;1.30;;;;;;;2.26;100.00;98321.23;1674972;84;21061;-72
2022/04/13 01:47:10;;;;;;;1.40;1.30;;;;;;;2.26;100.00;98319.39;1687052;85;21062;-71
2022/04/13 01:49:39;;;;;;;1.13;1.13;;;;;;;2.23;100.00;98315.73;1674742;85;21069;-73
2022/04/13 01:52:07;;;;;;;1.20;1.10;;;;;;;2.22;100.00;98315.89;1669376;86;21008;-71
2022/04/13 01:54:34;;;;;;;1.40;1.30;;;;;;;2.20;100.00;98312.05;1669275;86;21572;-72
2022/04/13 01:57:01;;;;;;;1.30;1.23;;;;;;;2.20;100.00;98301.37;1661153;85;21540;-71
2022/04/13 01:59:30;;;;;;;1.60;1.47;;;;;;;2.18;100.00;98309.19;1674759;85;21141;-71
2022/04/13 02:01:57;;;;;;;1.17;1.17;;;;;;;2.18;100.00;98303.38;1669449;86;21064;-72
2022/04/13 02:04:26;;;;;;;1.10;1.00;;;;;;;2.17;100.00;98296.36;1686701;85;21513;-72
2022/04/13 02:06:54;;;;;;;1.10;1.10;;;;;;;2.16;100.00;98286.70;1661088;85;21098;-72
2022/04/13 02:09:22;;;;;;;3.07;1.30;;;;;;;2.14;100.00;98286.51;1687092;85;21519;-72
2022/04/13 02:11:49;;;;;;;1.60;1.50;;;;;;;2.15;100.00;98285.52;1661263;85;21587;-72
2022/04/13 02:14:18;;;;;;;2.40;1.40;;;;;;;2.15;100.00;98286.86;1686428;85;21050;-71
2022/04/13 02:16:47;;;;;;;1.50;1.27;;;;;;;2.14;100.00;98286.51;1661178;85;21401;-70
2022/04/13 02:19:15;;;;;;;1.40;1.30;;;;;;;2.14;100.00;98279.34;1745699;82;21526;-71
2022/04/13 02:21:43;;;;;;;1.40;1.30;;;;;;;2.16;100.00;98273.38;1745740;82;21088;-70
2022/04/13 02:24:11;;;;;;;1.20;1.20;;;;;;;2.17;100.00;98269.69;1745864;82;21068;-71
2022/04/13 02:26:39;;;;;;;1.40;1.30;;;;;;;2.17;100.00;98268.86;1745681;82;21064;-70
2022/04/13 02:29:06;;;;;;;1.70;1.60;;;;;;;2.17;100.00;98268.36;1743131;82;21072;-70
2022/04/13 02:31:35;;;;;;;0.90;0.90;;;;;;;2.19;100.00;98267.70;1745662;82;21554;-71
2022/04/13 02:34:04;;;;;;;1.37;1.27;;;;;;;2.18;100.00;98268.70;1745439;82;21056;-71
2022/04/13 02:36:32;;;;;;;1.23;1.20;;;;;;;2.17;100.00;98263.53;1742810;82;21024;-72
2022/04/13 02:39:01;;;;;;;1.10;1.10;;;;;;;2.19;100.00;98254.36;1745784;82;21005;-70
2022/04/13 02:41:30;;;;;;;1.23;1.23;;;;;;;2.19;100.00;98258.36;1745510;82;21091;-70
2022/04/13 02:43:58;;;;;;;1.10;1.10;;;;;;;2.18;100.00;98257.19;1716258;82;21045;-71
2022/04/13 02:46:25;;;;;;;1.30;1.20;;;;;;;2.15;100.00;98250.35;1684602;84;21064;-70
2022/04/13 02:48:53;;;;;;;1.33;1.23;;;;;;;2.15;100.00;98245.02;1708239;84;21061;-69
2022/04/13 02:51:20;;;;;;;1.10;1.10;;;;;;;2.15;100.00;98250.86;1712738;84;21546;-71
2022/04/13 02:53:48;;;;;;;1.50;1.40;;;;;;;2.15;100.00;98253.02;1712840;84;21005;-70
2022/04/13 02:56:17;;;;;;;1.40;1.30;;;;;;;2.16;100.00;98245.84;1712784;84;21501;-71
2022/04/13 02:58:44;;;;;;;1.13;1.03;;;;;;;2.16;100.00;98250.70;1688003;84;21020;-71
2022/04/13 03:01:11;;;;;;;1.50;1.40;;;;;;;2.18;100.00;98246.04;1687118;84;21000;-70
2022/04/13 03:03:39;;;;;;;1.20;1.20;;;;;;;2.20;100.00;98247.22;1669374;85;21068;-70
2022/04/13 03:06:06;;;;;;;2.00;1.50;;;;;;;2.21;100.00;98240.39;1681324;85;21065;-71
2022/04/13 03:08:34;;;;;;;1.77;1.67;;;;;;;2.21;100.00;98241.73;1681231;85;21045;-71
2022/04/13 03:11:03;;;;;;;2.00;1.73;;;;;;;2.20;100.00;98240.04;1681321;85;21506;-71
2022/04/13 03:13:31;;;;;;;2.50;1.63;;;;;;;2.17;100.00;98233.69;1681235;85;21045;-71
2022/04/13 03:16:00;;;;;;;3.20;1.87;;;;;;;2.17;100.00;98234.20;1686819;84;21064;-70
2022/04/13 03:18:28;;;;;;;1.67;1.57;;;;;;;2.15;100.00;98231.69;1681082;85;21133;-72
2022/04/13 03:20:56;;;;;;;2.13;1.93;;;;;;;2.15;100.00;98233.53;1686547;85;21070;-71
2022/04/13 03:23:24;;;;;;;1.93;1.77;;;;;;;2.13;100.00;98227.02;1686803;85;21057;-72
2022/04/13 03:25:52;;;;;;;2.03;1.90;;;;;;;2.13;100.00;98223.53;1681141;85;21029;-71
2022/04/13 03:28:23;;;;;;;1.80;1.70;;;;;;;2.12;100.00;98217.34;1681257;84;21004;-71
2022/04/13 03:30:50;;;;;;;2.20;1.87;;;;;;;2.12;100.00;98227.18;1681157;85;21441;-71
2022/04/13 03:33:19;;;;;;;3.53;3.23;;;;;;;2.11;100.00;98225.02;1681309;85;21568;-71
2022/04/13 03:35:46;;;;;;;6.00;5.40;;;;;;;2.09;100.00;98221.17;1681462;85;21069;-71
2022/04/13 03:38:13;;;;;;;2.70;2.47;;;;;;;2.12;100.00;98220.00;1686590;85;21061;-71
2022/04/13 03:40:40;;;;;;;7.80;6.60;;;;;;;2.13;100.00;98217.69;1686902;85;21079;-72
2022/04/13 03:43:07;;;;;;;2.40;2.30;;;;;;;2.13;100.00;98213.69;1689433;84;21470;-72
2022/04/13 03:45:34;;;;;;;4.20;3.73;;;;;;;2.15;100.00;98209.53;1712856;84;20997;-71
2022/04/13 03:48:03;;;;;;;2.70;2.50;;;;;;;2.13;100.00;98205.69;1712664;84;21060;-70
2022/04/13 03:50:30;;;;;;;2.57;2.40;;;;;;;2.13;100.00;98207.53;1686321;84;21071;-71
2022/04/13 03:52:57;;;;;;;1.30;1.20;;;;;;;2.13;100.00;98204.36;1712604;84;21043;-70
2022/04/13 03:55:24;;;;;;;0.90;0.90;;;;;;;2.14;100.00;98203.84;1686385;84;21095;-71
2022/04/13 03:57:52;;;;;;;10.67;9.57;;;;;;;2.13;100.00;98195.53;1686927;84;21534;-71
2022/04/13 04:00:21;;;;;;;8.77;7.87;;;;;;;2.13;100.00;98208.36;1712551;84;21081;-70
2022/04/13 04:02:48;;;;;;;2.30;2.20;;;;;;;2.13;100.00;98205.69;1710013;84;21028;-70
2022/04/13 04:05:15;;;;;;;2.90;2.70;;;;;;;2.14;100.00;98209.19;1704686;84;21055;-71
2022/04/13 04:07:42;;;;;;;2.70;2.50;;;;;;;2.15;100.00;98213.02;1733087;83;21045;-72
2022/04/13 04:10:11;;;;;;;1.90;1.80;;;;;;;2.17;100.00;98196.87;1733097;83;21648;-71
2022/04/13 04:12:40;;;;;;;1.50;1.40;;;;;;;2.18;100.00;98194.52;1733339;83;21072;-71
2022/04/13 04:15:09;;;;;;;1.00;0.90;;;;;;;2.15;100.00;98190.87;1733117;83;21589;-71
2022/04/13 04:17:38;;;;;;;1.57;1.27;;;;;;;2.15;100.00;98185.53;1732957;83;21073;-71
2022/04/13 04:20:07;;;;;;;1.07;0.93;;;;;;;2.16;100.00;98180.52;1732814;83;21529;-71
2022/04/13 04:22:35;;;;;;;1.10;1.10;;;;;;;2.18;100.00;98177.19;1732482;83;21073;-71
2022/04/13 04:25:08;;;;;;;4.77;4.27;;;;;;;2.18;100.00;98175.85;1733451;83;21092;-71
2022/04/13 04:27:35;;;;;;;2.60;2.40;;;;;;;2.17;100.00;98179.03;1733645;83;21558;-71
2022/04/13 04:30:03;;;;;;;2.20;1.80;;;;;;;2.17;100.00;98187.53;1732957;83;21037;-72
2022/04/13 04:32:32;;;;;;;3.77;1.97;;;;;;;2.15;100.00;98182.36;1732848;83;21033;-71
2022/04/13 04:35:00;;;;;;;1.37;1.27;;;;;;;2.16;100.00;98176.52;1733176;83;21065;-72
2022/04/13 04:37:27;;;;;;;1.30;1.07;;;;;;;2.15;100.00;98176.20;1733511;83;21080;-70
2022/04/13 04:39:56;;;;;;;0.80;0.80;;;;;;;2.14;100.00;98167.34;1732851;83;21053;-71
2022/04/13 04:42:25;;;;;;;1.73;1.40;;;;;;;2.14;100.00;98159.34;1729108;83;22236;-69
2022/04/13 04:44:56;;;;;;;1.77;1.30;;;;;;;2.14;100.00;98151.34;1715529;84;21077;-70
2022/04/13 04:47:26;;;;;;;0.90;0.90;;;;;;;2.15;100.00;98152.20;1683722;85;20987;-70
2022/04/13 04:49:55;;;;;;;2.17;1.67;;;;;;;2.14;100.00;98148.68;1638551;86;21070;-69
2022/04/13 04:52:22;;;;;;;0.97;0.97;;;;;;;2.13;100.00;98144.36;1649455;87;21051;-70
2022/04/13 04:54:50;;;;;;;3.77;1.33;;;;;;;2.15;100.00;98148.20;1660991;86;21065;-70
2022/04/13 04:57:18;;;;;;;1.63;1.30;;;;;;;2.15;100.00;98145.53;1625185;87;21112;-69
2022/04/13 04:59:45;;;;;;;1.87;1.43;;;;;;;2.16;100.00;98137.38;1638463;86;21488;-70
2022/04/13 05:02:12;;;;;;;0.97;0.97;;;;;;;2.18;100.00;98144.71;1621095;87;21143;-71
2022/04/13 05:04:41;;;;;;;3.90;1.90;;;;;;;2.20;100.00;98146.70;1625902;87;21566;-74
2022/04/13 05:07:08;;;;;;;1.70;1.17;;;;;;;2.21;100.00;98139.53;1647244;87;21149;-72
2022/04/13 05:09:37;;;;;;;7.07;3.07;;;;;;;2.21;100.00;98126.20;1647481;87;21090;-73
2022/04/13 05:12:07;;;;;;;5.07;3.03;;;;;;;2.19;100.00;98124.20;1647206;87;21061;-73
2022/04/13 05:14:35;;;;;;;4.90;2.93;;;;;;;2.21;100.00;98126.20;1647390;87;21121;-73
2022/04/13 05:17:02;;;;;;;5.57;2.63;;;;;;;2.22;100.00;98136.70;1647701;87;21018;-73
2022/04/13 05:19:30;;;;;;;1.13;1.07;;;;;;;2.24;100.00;98122.70;1640972;87;21121;-71
2022/04/13 05:21:57;;;;;;;4.33;2.80;;;;;;;2.26;100.00;98120.70;1638497;87;21074;-72
2022/04/13 05:24:25;;;;;;;4.83;3.07;;;;;;;2.28;100.00;98129.40;1621468;88;21725;-71
2022/04/13 05:26:51;;;;;;;3.07;1.53;;;;;;;2.30;100.00;98129.71;1603017;87;21061;-72
2022/04/13 05:29:20;;;;;;;1.57;1.47;;;;;;;2.31;100.00;98128.22;1643375;86;21065;-72
2022/04/13 05:31:48;;;;;;;1.83;1.70;;;;;;;2.31;100.00;98126.06;1648589;87;21113;-74
2022/04/13 05:34:16;;;;;;;3.70;2.77;;;;;;;2.31;100.00;98116.73;1664903;86;21657;-72
2022/04/13 05:36:43;;;;;;;3.50;2.60;;;;;;;2.32;100.00;98119.71;1648020;87;21088;-72
2022/04/13 05:39:10;;;;;;;3.00;2.10;;;;;;;2.35;100.00;98124.21;1643081;86;21637;-69
2022/04/13 05:41:38;;;;;;;4.53;2.63;;;;;;;2.37;100.00;98120.05;1615433;88;21058;-72
2022/04/13 05:44:07;;;;;;;1.13;1.10;;;;;;;2.38;100.00;98122.55;1631143;88;21077;-71
2022/04/13 05:46:34;;;;;;;2.00;1.87;;;;;;;2.39;100.00;98112.23;1684770;84;21017;-72
2022/04/13 05:49:01;;;;;;;1.40;1.30;;;;;;;2.40;100.00;98117.88;1709037;84;21041;-71
2022/04/13 05:51:28;;;;;;;2.40;1.70;;;;;;;2.40;100.00;98115.22;1708765;84;21010;-71
2022/04/13 05:53:55;;;;;;;2.30;1.80;;;;;;;2.41;100.00;98106.73;1708737;84;21022;-72
2022/04/13 05:56:22;;;;;;;2.27;2.07;;;;;;;2.42;100.00;98109.72;1706737;84;21080;-71
2022/04/13 05:58:50;;;;;;;2.50;2.30;;;;;;;2.45;100.00;98108.06;1719988;82;21044;-75
2022/04/13 06:01:17;;;;;;;1.93;1.40;;;;;;;2.43;100.00;98108.22;1737172;82;21036;-72
2022/04/13 06:03:46;;;;;;;2.50;1.43;;;;;;;2.44;100.00;98103.71;1720310;82;21557;-71
2022/04/13 06:06:13;;;;;;;1.77;1.33;;;;;;;2.44;100.00;98095.70;1683936;84;21585;-73
2022/04/13 06:08:41;;;;;;;2.37;2.17;;;;;;;2.44;100.00;98089.89;1706217;84;21026;-73
2022/04/13 06:11:09;;;;;;;2.53;2.30;;;;;;;2.46;100.00;98083.03;1693196;84;21043;-73
2022/04/13 06:13:38;;;;;;;1.47;1.37;;;;;;;2.48;100.00;98079.72;1708934;83;21054;-75
2022/04/13 06:16:08;;;;;;;2.17;1.77;;;;;;;2.50;100.00;98078.19;1694985;84;21065;-72
2022/04/13 06:18:35;;;;;;;6.77;4.37;;;;;;;2.49;100.00;98064.54;1694960;84;21107;-73
2022/04/13 06:21:04;;;;;;;7.23;4.23;;;;;;;2.52;100.00;98062.88;1723632;82;21060;-71
2022/04/13 06:23:32;;;;;;;8.90;4.10;;;;;;;2.55;100.00;98061.19;1713836;83;21580;-72
2022/04/13 06:26:01;;;;;;;7.40;3.60;;;;;;;2.58;100.00;98056.85;1724333;83;21103;-73
2022/04/13 06:28:30;;;;;;;7.60;4.03;;;;;;;2.60;100.00;98058.84;1736350;82;21549;-72
2022/04/13 06:30:58;;;;;;;4.47;3.20;;;;;;;2.58;100.00;98051.01;1658332;86;21042;-74
2022/04/13 06:33:25;;;;;;;2.57;2.37;;;;;;;2.59;100.00;98059.87;1693672;84;21644;-74
2022/04/13 06:35:53;;;;;;;3.03;2.47;;;;;;;2.59;100.00;98057.20;1688038;84;21129;-75
2022/04/13 06:38:21;;;;;;;1.87;1.50;;;;;;;2.58;100.00;98058.19;1692145;84;21033;-73
2022/04/13 06:40:49;;;;;;;1.77;1.67;;;;;;;2.59;100.00;98058.53;1689783;84;21084;-72
2022/04/13 06:43:17;;;;;;;1.63;1.53;;;;;;;2.60;100.00;98066.38;1706958;83;21648;-72
2022/04/13 06:45:45;;;;;;;2.27;1.90;;;;;;;2.60;100.00;98069.52;1695696;84;21080;-74
2022/04/13 06:48:12;;;;;;;2.30;2.00;;;;;;;2.60;100.00;98071.70;1697197;84;21040;-74
2022/04/13 06:50:40;;;;;;;5.70;2.50;;;;;;;2.63;100.00;98062.01;1694369;84;21190;-73
2022/04/13 06:53:08;;;;;;;3.80;2.80;;;;;;;2.66;100.00;98052.34;1695331;84;21053;-73
2022/04/13 06:55:39;;;;;;;16.43;6.03;;;;;;;2.66;100.00;98054.19;1696649;84;21048;-74
2022/04/13 06:58:05;;;;;;;11.93;5.33;;;;;;;2.68;100.00;98060.19;1696389;84;21051;-73
2022/04/13 07:00:34;;;;;;;18.03;6.37;;;;;;;2.69;100.00;98052.48;1697135;84;21061;-73
2022/04/13 07:03:01;;;;;;;15.97;6.93;;;;;;;2.71;100.00;98063.86;1697453;84;21042;-73
2022/04/13 07:05:29;;;;;;;12.03;5.33;;;;;;;2.72;100.00;98058.00;1696263;84;21069;-72
2022/04/13 07:07:57;;;;;;;3.63;2.67;;;;;;;2.75;100.00;98043.82;1696903;84;21055;-71
2022/04/13 07:10:28;;;;;;;6.50;3.30;;;;;;;2.78;100.00;98042.16;1697310;84;21103;-75
2022/04/13 07:12:55;;;;;;;4.20;2.60;;;;;;;2.79;100.00;98045.65;1689829;84;21022;-71
2022/04/13 07:15:24;;;;;;;7.23;3.93;;;;;;;2.79;100.00;98033.13;1689624;85;21053;-73
2022/04/13 07:17:53;;;;;;;2.63;2.43;;;;;;;2.80;100.00;98040.66;1667373;85;21085;-76
2022/04/13 07:20:21;;;;;;;4.30;2.93;;;;;;;2.79;100.00;98028.30;1690884;84;21535;-72
2022/04/13 07:22:52;;;;;;;5.10;2.80;;;;;;;2.79;100.00;98027.79;1693980;84;21045;-73
2022/04/13 07:25:19;;;;;;;4.93;2.67;;;;;;;2.80;100.00;98023.30;1694884;84;20984;-72
2022/04/13 07:27:47;;;;;;;5.27;3.40;;;;;;;2.81;100.00;98029.78;1663022;85;21559;-73
2022/04/13 07:30:14;;;;;;;7.10;4.33;;;;;;;2.83;100.00;98033.61;1667026;84;21073;-74
2022/04/13 07:32:48;;;;;;;7.07;4.30;;;;;;;2.88;100.00;98035.27;1693623;84;21026;-71
2022/04/13 07:35:16;;;;;;;6.87;4.23;;;;;;;2.91;100.00;98042.95;1754190;81;21013;-73
2022/04/13 07:37:43;;;;;;;6.03;3.70;;;;;;;2.93;100.00;98043.61;1734139;81;21032;-73
2022/04/13 07:40:11;;;;;;;7.50;4.60;;;;;;;2.96;100.00;98038.45;1766909;81;21037;-72
2022/04/13 07:42:39;;;;;;;8.93;4.10;;;;;;;2.98;100.00;98035.92;1736356;81;21107;-72
2022/04/13 07:45:08;;;;;;;8.57;4.87;;;;;;;3.01;100.00;98032.06;1754497;81;21013;-72
2022/04/13 07:47:37;;;;;;;7.93;4.73;;;;;;;3.04;100.00;98018.38;1757177;81;21044;-73
2022/04/13 07:50:06;;;;;;;5.97;3.60;;;;;;;3.08;100.00;98022.86;1732741;81;21049;-71
2022/04/13 07:52:34;;;;;;;3.43;3.10;;;;;;;3.11;100.00;98021.19;1734552;83;21013;-71
2022/04/13 07:55:01;;;;;;;5.40;3.70;;;;;;;3.14;100.00;98014.17;1735530;83;21509;-72
2022/04/13 07:57:29;;;;;;;9.97;5.80;;;;;;;3.15;100.00;98025.17;1735038;83;21076;-73
2022/04/13 07:59:56;;;;;;;6.27;3.57;;;;;;;3.17;100.00;98037.36;1733139;83;21052;-73
2022/04/13 08:02:25;;;;;;;7.00;4.23;;;;;;;3.20;100.00;98027.64;1732730;83;21065;-73
2022/04/13 08:04:52;;;;;;;23.00;14.60;;;;;;;3.21;100.00;98033.33;1715042;84;21060;-72
2022/04/13 08:07:21;;;;;;;18.40;10.53;;;;;;;3.23;100.00;98035.32;1711660;84;21037;-74
2022/04/13 08:09:48;;;;;;;14.53;8.60;;;;;;;3.22;100.00;98028.33;1715337;84;21119;-74
2022/04/13 08:12:16;;;;;;;19.63;10.77;;;;;;;3.25;100.00;98028.47;1712198;83;21056;-73
2022/04/13 08:14:48;;;;;;;19.90;11.60;;;;;;;3.25;100.00;98019.13;1713314;83;21041;-72
2022/04/13 08:17:16;;;;;;;11.77;7.43;;;;;;;3.26;100.00;98025.29;1705100;83;21523;-71
2022/04/13 08:19:44;;;;;;;6.33;4.33;;;;;;;3.26;100.00;98024.81;1696112;83;21108;-72
2022/04/13 08:22:13;;;;;;;11.07;5.33;;;;;;;3.29;100.00;98021.77;1726235;83;21092;-74
2022/04/13 08:24:40;;;;;;;7.03;4.13;;;;;;;3.32;100.00;98025.44;1703748;84;21092;-73
2022/04/13 08:27:09;;;;;;;12.43;5.40;;;;;;;3.32;100.00;98016.59;1704690;84;21108;-74
2022/04/13 08:29:37;;;;;;;7.40;4.40;;;;;;;3.32;100.00;98021.42;1672177;84;21599;-72
2022/04/13 08:32:06;;;;;;;5.10;3.80;;;;;;;3.35;100.00;98010.91;1714596;84;21054;-72
2022/04/13 08:34:34;;;;;;;6.00;3.80;;;;;;;3.39;100.00;98006.88;1713395;84;21013;-72
2022/04/13 08:37:01;;;;;;;5.33;3.87;;;;;;;3.39;100.00;98008.21;1728611;83;21064;-71
2022/04/13 08:39:29;;;;;;;6.53;4.07;;;;;;;3.39;100.00;98001.02;1699806;83;21045;-76
2022/04/13 08:41:58;;;;;;;9.93;5.30;;;;;;;3.43;100.00;98009.52;1702166;82;21746;-71
2022/04/13 08:44:36;;;;;;;11.63;8.03;;;;;;;3.48;100.00;98000.47;1718423;83;21103;-73
2022/04/13 08:47:07;;;;;;;88.00;67.77;;;;;;;3.56;100.00;98000.92;1710045;84;21015;-75
2022/04/13 08:49:34;;;;;;;68.23;54.67;;;;;;;3.60;100.00;97991.05;1707745;84;21007;-72
2022/04/13 08:52:04;;;;;;;98.33;77.57;;;;;;;3.63;100.00;97993.03;1684455;83;21065;-74
2022/04/13 08:54:34;;;;;;;63.27;51.43;;;;;;;3.68;100.00;97994.16;1629256;87;21081;-71
2022/04/13 08:57:01;;;;;;;50.10;44.87;;;;;;;3.73;100.00;97988.30;1629803;87;21133;-74
2022/04/13 09:00:03;;;;;;;16.93;10.17;;;;;;;3.77;100.00;97995.80;1644010;85;21988;-74
2022/04/13 09:03:00;;;;;;;10.17;5.27;;;;;;;3.82;100.00;97989.89;1655767;85;21130;-73
2022/04/13 09:05:31;;;;;;;13.70;7.97;;;;;;;3.90;100.00;97991.70;1650303;87;21151;-75
2022/04/13 09:08:08;;;;;;;19.47;11.20;;;;;;;3.98;100.00;97990.28;1625906;87;21013;-73
2022/04/13 09:10:37;;;;;;;17.87;10.60;;;;;;;4.05;100.00;97980.53;1615721;87;21033;-71
2022/04/13 09:13:12;;;;;;;24.87;17.77;;;;;;;4.11;100.00;97983.02;1668250;86;21080;-73
2022/04/13 09:15:40;;;;;;;29.70;22.33;;;;;;;4.13;100.00;97982.32;1640022;87;21093;-74
2022/04/13 09:18:08;;;;;;;23.37;18.07;;;;;;;4.15;100.00;97981.11;1645290;86;21021;-72
2022/04/13 09:20:37;;;;;;;13.63;8.10;;;;;;;4.17;100.00;97975.59;1669944;86;21827;-72
2022/04/13 09:23:04;;;;;;;14.30;7.70;;;;;;;4.18;100.00;97974.59;1619524;89;21595;-73
2022/04/13 09:25:32;;;;;;;14.13;7.13;;;;;;;4.22;100.00;97970.53;1567186;90;21599;-75
2022/04/13 09:28:01;;;;;;;14.80;5.87;;;;;;;4.29;100.00;97967.97;1589200;90;21088;-75
2022/04/13 09:30:29;;;;;;;27.87;13.53;;;;;;;4.36;100.00;97964.38;1573449;90;21559;-74
2022/04/13 09:32:58;;;;;;;16.30;9.17;;;;;;;4.43;100.00;97965.82;1581167;90;21039;-69
2022/04/13 09:35:25;;;;;;;33.43;25.37;;;;;;;4.50;100.00;97958.72;1574534;90;21111;-71
2022/04/13 09:37:53;;;;;;;10.63;6.40;;;;;;;4.57;100.00;97954.81;1592773;90;21107;-71
2022/04/13 09:40:37;;;;;;;14.47;8.07;;;;;;;4.62;100.00;97956.44;1592851;90;21546;-72
2022/04/13 09:43:10;;;;;;;16.90;9.03;;;;;;;4.65;100.00;97956.04;1604906;87;21051;-74
2022/04/13 09:45:43;;;;;;;16.23;8.27;;;;;;;4.72;100.00;97957.48;1639019;88;21051;-72
2022/04/13 09:48:15;;;;;;;18.77;10.10;;;;;;;4.75;100.00;97954.44;1611341;89;21587;-71
2022/04/13 09:50:44;;;;;;;15.47;7.97;;;;;;;4.79;100.00;97944.19;1538441;92;21054;-76
2022/04/13 09:53:15;;;;;;;13.33;7.00;;;;;;;4.85;100.00;97942.95;1550990;92;21108;-73
2022/04/13 09:55:47;;;;;;;14.83;7.00;;;;;;;4.89;100.00;97942.89;1524699;94;21109;-71
2022/04/13 09:58:17;;;;;;;16.57;8.07;;;;;;;4.95;100.00;97940.79;1523543;92;21064;-73
2022/04/13 10:00:47;;;;;;;16.70;9.67;;;;;;;5.06;100.00;97939.48;1554594;92;21104;-75
2022/04/13 10:03:19;;;;;;;18.87;10.97;;;;;;;5.17;100.00;97942.70;1543928;92;21049;-73
2022/04/13 10:08:24;;;;;;;16.43;9.00;;;;;;;5.28;100.00;97943.05;1469962;98;21097;-73
2022/04/13 10:10:59;;;;;;;17.17;8.90;;;;;;;5.33;100.00;97939.83;1469303;98;21108;-75
2022/04/13 10:13:40;;;;;;;14.93;7.60;;;;;;;5.36;100.00;97946.64;1459450;97;21101;-73
2022/04/13 10:16:10;;;;;;;16.30;8.00;;;;;;;5.38;100.00;97949.95;1458210;98;21210;-73
2022/04/13 10:18:58;;;;;;;17.57;9.03;;;;;;;5.42;100.00;97953.42;1438707;98;21239;-74
2022/04/13 10:21:45;;;;;;;13.97;7.27;;;;;;;5.43;100.00;97954.24;1491236;96;21066;-72
2022/04/13 10:24:24;;;;;;;13.53;7.70;;;;;;;5.48;100.00;97959.35;1490914;96;21195;-73
2022/04/13 10:27:19;;;;;;;15.57;7.87;;;;;;;5.50;100.00;97957.31;1480131;96;21107;-73
2022/04/13 10:29:49;;;;;;;14.50;7.53;;;;;;;5.55;100.00;97952.73;1491137;96;21101;-71
2022/04/13 10:32:24;;;;;;;12.40;7.13;;;;;;;5.59;100.00;97954.52;1491539;96;21083;-71
2022/04/13 10:34:54;;;;;;;13.87;7.20;;;;;;;5.60;100.00;97958.35;1490625;96;21082;-73
2022/04/13 10:37:23;;;;;;;18.63;10.50;;;;;;;5.63;100.00;97953.11;1490259;96;21127;-73
2022/04/13 10:39:54;;;;;;;16.37;8.43;;;;;;;5.67;100.00;97953.89;1489854;96;21126;-73
2022/04/13 10:42:21;;;;;;;17.97;8.60;;;;;;;5.75;100.00;97957.47;1495321;95;21060;-73
2022/04/13 10:45:05;;;;;;;15.47;8.03;;;;;;;5.84;100.00;97950.45;1493350;95;21380;-73
2022/04/13 10:47:59;;;;;;;16.85;8.28;;;;;;;5.89;100.00;97945.31;1483840;96;21708;-72
2022/04/13 10:50:48;;;;;;;18.02;9.08;;;;;;;5.97;100.00;97943.59;1492991;93;21154;-74
2022/04/13 10:53:30;;;;;;;18.37;9.90;;;;;;;6.04;100.00;97815.69;1530423;93;21125;-74
2022/04/13 11:35:25;;;;;;;12.23;6.77;;;;;;;6.97;100.00;97570.80;1737085;81;21112;-74
2022/04/13 11:38:06;;;;;;;11.77;6.43;;;;;;;7.05;100.00;97551.78;1778760;80;21065;-73
2022/04/13 11:40:34;;;;;;;12.13;7.03;;;;;;;7.08;100.00;97535.74;1744760;81;21010;-74
2022/04/13 11:43:02;;;;;;;10.20;6.43;;;;;;;7.08;100.00;97535.21;1742879;82;21089;-74
2022/04/13 11:45:30;;;;;;;13.77;7.90;;;;;;;7.11;100.00;97518.68;1755422;81;21034;-72
2022/04/13 11:47:59;;;;;;;14.00;7.73;;;;;;;7.16;100.00;97488.50;1757219;81;21027;-73
2022/04/13 11:50:33;;;;;;;14.70;8.23;;;;;;;7.19;100.00;97474.12;1768958;80;20966;-72
2022/04/13 11:53:13;;;;;;;15.70;8.67;;;;;;;7.22;100.00;97454.89;1676170;86;21567;-72
2022/04/13 11:55:43;;;;;;;13.87;7.43;;;;;;;7.26;100.00;97454.44;1664350;86;21101;-73
2022/04/13 11:58:19;;;;;;;15.90;7.73;;;;;;;7.31;100.00;97457.31;1662215;86;21082;-72
2022/04/13 12:00:57;;;;;;;13.60;7.17;;;;;;;7.34;100.00;97450.99;1677449;85;21022;-73
2022/04/13 12:03:30;;;;;;;14.80;7.67;;;;;;;7.36;100.00;97438.16;1687792;84;21086;-74
2022/04/13 12:06:11;;;;;;;13.80;7.83;;;;;;;7.37;100.00;97439.00;1688942;85;20987;-73
2022/04/13 12:08:48;;;;;;;13.95;7.45;;;;;;;7.35;100.00;97430.33;1693317;83;21014;-72
2022/04/13 12:11:18;;;;;;;13.80;7.20;;;;;;;7.33;100.00;97430.55;1720279;83;21018;-71
2022/04/13 12:13:59;;;;;;;15.40;7.93;;;;;;;7.36;100.00;97431.96;1720309;83;21018;-73
2022/04/13 12:16:33;;;;;;;14.60;7.57;;;;;;;7.40;100.00;97431.33;1719352;83;21045;-73
2022/04/13 12:19:04;;;;;;;13.13;7.93;;;;;;;7.45;100.00;97378.24;1723265;82;21483;-73
2022/04/13 12:21:36;;;;;;;19.60;10.20;;;;;;;7.47;100.00;97358.71;1735314;82;21049;-71